createdAt,value
2019-05-06T00:01:25.307Z,75679.11
2019-05-06T00:03:54.787Z,75688.38
2019-05-06T00:06:24.253Z,75716.53
2019-05-06T00:08:54.553Z,75699.25
2019-05-06T00:11:24.216Z,75697.00
2019-05-06T00:13:54.269Z,75690.92
2019-05-06T00:16:23.988Z,75688.75
2019-05-06T00:18:54.254Z,75680.27
2019-05-06T00:21:24.428Z,75684.20
2019-05-06T00:23:54.723Z,75683.16
2019-05-06T00:26:28.697Z,75684.97
2019-05-06T00:28:59.771Z,75683.55
2019-05-06T00:31:29.230Z,75674.45
2019-05-06T00:33:58.704Z,75683.52
2019-05-06T00:36:28.198Z,75678.11
2019-05-06T00:38:59.229Z,75682.59
2019-05-06T00:41:36.293Z,75683.88
2019-05-06T00:44:05.662Z,75686.45
2019-05-06T00:46:35.134Z,75682.33
2019-05-06T00:49:04.641Z,75675.55
2019-05-06T00:51:34.133Z,75679.47
2019-05-06T00:54:14.461Z,75702.70
2019-05-06T00:56:44.729Z,75700.45
2019-05-06T00:59:14.458Z,75682.68
2019-05-06T01:01:43.933Z,75677.89
2019-05-06T01:04:13.883Z,75663.26
2019-05-06T01:06:44.051Z,75660.36
2019-05-06T01:09:15.288Z,75658.23
2019-05-06T01:11:46.344Z,75659.78
2019-05-06T01:14:17.593Z,75669.40
2019-05-06T01:16:47.116Z,75665.77
2019-05-06T01:19:16.592Z,75656.66
2019-05-06T01:21:46.181Z,75666.12
2019-05-06T01:24:15.656Z,75673.94
2019-05-06T01:26:45.143Z,75657.56
2019-05-06T01:29:14.722Z,75631.70
2019-05-06T01:31:46.090Z,75625.82
2019-05-06T01:34:15.382Z,75632.11
2019-05-06T01:36:44.883Z,75640.22
2019-05-06T01:39:18.575Z,75636.84
2019-05-06T01:41:49.613Z,75625.67
2019-05-06T01:44:19.216Z,75619.64
2019-05-06T01:46:48.728Z,75632.56
2019-05-06T01:49:18.280Z,75640.03
2019-05-06T01:51:47.775Z,75641.92
2019-05-06T01:54:17.163Z,75629.99
2019-05-06T01:56:46.626Z,75616.91
2019-05-06T01:59:16.132Z,75617.45
2019-05-06T02:01:57.021Z,75604.66
2019-05-06T02:04:16.810Z,75605.87
2019-05-06T02:06:46.280Z,75592.27
2019-05-06T02:09:16.144Z,75583.81
2019-05-06T02:11:47.929Z,75590.11
2019-05-06T02:14:16.845Z,75599.56
2019-05-06T02:16:46.309Z,75591.75
2019-05-06T02:19:15.755Z,75592.28
2019-05-06T02:21:47.112Z,75585.84
2019-05-06T02:24:24.447Z,75572.72
2019-05-06T02:26:54.388Z,75564.20
2019-05-06T02:29:38.710Z,75570.16
2019-05-06T02:32:25.606Z,75562.48
2019-05-06T02:34:46.206Z,75553.22
2019-05-06T02:37:26.387Z,75558.39
2019-05-06T02:39:55.896Z,75554.02
2019-05-06T02:42:25.383Z,75559.42
2019-05-06T02:44:54.843Z,75557.66
2019-05-06T02:47:38.242Z,75550.51
2019-05-06T02:50:13.290Z,75551.95
2019-05-06T02:52:44.109Z,75545.69
2019-05-06T02:55:13.944Z,75545.24
2019-05-06T02:57:44.131Z,75548.09
2019-05-06T03:00:16.559Z,75548.94
2019-05-06T03:02:48.143Z,75543.80
2019-05-06T03:05:17.314Z,75545.89
2019-05-06T03:07:46.824Z,75544.52
2019-05-06T03:10:16.301Z,75546.08
2019-05-06T03:12:45.760Z,75533.10
2019-05-06T03:15:16.866Z,75529.98
2019-05-06T03:17:46.621Z,75532.78
2019-05-06T03:20:24.925Z,75537.70
2019-05-06T03:22:55.973Z,75540.98
2019-05-06T03:25:27.021Z,75548.27
2019-05-06T03:27:56.538Z,75544.84
2019-05-06T03:30:26.103Z,75545.57
2019-05-06T03:33:31.451Z,75548.17
2019-05-06T03:35:42.161Z,75544.35
2019-05-06T03:37:58.069Z,75538.95
2019-05-06T03:40:27.557Z,75537.15
2019-05-06T03:42:57.036Z,75554.16
2019-05-06T03:45:33.554Z,75563.64
2019-05-06T03:48:06.817Z,75567.33
2019-05-06T03:50:36.284Z,75571.76
2019-05-06T03:53:05.738Z,75579.06
2019-05-06T03:55:35.221Z,75588.26
2019-05-06T03:58:04.690Z,75584.69
2019-05-06T04:00:34.379Z,75588.83
2019-05-06T04:03:03.863Z,75586.10
2019-05-06T04:05:33.667Z,75583.85
2019-05-06T04:08:04.002Z,75580.31
2019-05-06T04:10:37.040Z,75582.79
2019-05-06T04:13:04.857Z,75588.98
2019-05-06T04:15:54.017Z,75596.83
2019-05-06T04:18:25.026Z,75606.83
2019-05-06T04:20:56.091Z,75608.95
2019-05-06T04:23:32.825Z,75607.41
2019-05-06T04:26:03.530Z,75607.86
2019-05-06T04:28:34.929Z,75615.30
2019-05-06T04:31:05.210Z,75611.83
2019-05-06T04:33:35.172Z,75620.38
2019-05-06T04:36:04.658Z,75628.17
2019-05-06T04:38:34.325Z,75625.94
2019-05-06T04:41:03.788Z,75624.23
2019-05-06T04:43:33.864Z,75626.20
2019-05-06T04:46:03.515Z,75633.11
2019-05-06T04:48:33.309Z,75641.70
2019-05-06T04:51:03.579Z,75644.05
2019-05-06T04:53:33.720Z,75643.92
2019-05-06T04:56:04.314Z,75653.66
2019-05-06T04:58:34.063Z,75660.17
2019-05-06T05:01:04.326Z,75659.30
2019-05-06T05:03:33.899Z,75660.69
2019-05-06T05:06:05.865Z,75672.29
2019-05-06T05:08:37.860Z,75675.89
2019-05-06T05:11:22.846Z,75680.82
2019-05-06T05:13:56.934Z,75697.23
2019-05-06T05:16:33.020Z,75706.81
2019-05-06T05:19:03.755Z,75715.08
2019-05-06T05:21:33.224Z,75722.61
2019-05-06T05:24:02.716Z,75744.89
2019-05-06T05:26:32.676Z,75746.81
2019-05-06T05:29:02.758Z,75745.02
2019-05-06T05:31:33.230Z,75733.97
2019-05-06T05:34:02.913Z,75743.73
2019-05-06T05:36:32.901Z,75763.88
2019-05-06T05:39:03.313Z,75779.30
2019-05-06T05:41:33.382Z,75780.39
2019-05-06T05:44:04.651Z,75795.00
2019-05-06T05:46:34.161Z,75795.72
2019-05-06T05:49:05.205Z,75807.63
2019-05-06T05:51:34.702Z,75807.56
2019-05-06T05:54:04.179Z,75806.95
2019-05-06T05:56:33.639Z,75805.34
2019-05-06T05:59:03.457Z,75809.31
2019-05-06T06:01:33.075Z,75820.58
2019-05-06T06:04:03.010Z,75827.31
2019-05-06T06:06:33.342Z,75850.69
2019-05-06T06:09:03.404Z,75854.17
2019-05-06T06:11:34.526Z,75878.03
2019-05-06T06:14:05.623Z,75872.27
2019-05-06T06:16:53.258Z,75882.84
2019-05-06T06:19:27.592Z,75878.48
2019-05-06T06:21:59.164Z,75866.85
2019-05-06T06:24:32.251Z,75867.11
2019-05-06T06:27:03.096Z,75881.11
2019-05-06T06:29:32.809Z,75909.09
2019-05-06T06:32:20.037Z,75919.41
2019-05-06T06:34:52.114Z,75926.56
2019-05-06T06:37:42.515Z,75928.47
2019-05-06T06:40:13.239Z,75921.25
2019-05-06T06:42:42.849Z,75918.09
2019-05-06T06:45:12.431Z,75918.45
2019-05-06T06:47:42.486Z,75905.36
2019-05-06T06:50:12.708Z,75914.67
2019-05-06T06:52:42.308Z,75933.91
2019-05-06T06:55:12.931Z,75956.77
2019-05-06T06:57:44.169Z,75961.22
2019-05-06T07:00:27.720Z,75949.91
2019-05-06T07:02:58.974Z,75971.50
2019-05-06T07:05:33.249Z,76002.48
2019-05-06T07:08:02.887Z,76027.77
2019-05-06T07:10:44.320Z,76018.61
2019-05-06T07:13:15.329Z,76032.92
2019-05-06T07:15:44.794Z,76025.83
2019-05-06T07:18:14.256Z,76015.94
2019-05-06T07:20:48.287Z,76014.63
2019-05-06T07:23:24.434Z,76002.89
2019-05-06T07:25:54.424Z,76000.97
2019-05-06T07:28:24.601Z,76014.19
2019-05-06T07:30:55.280Z,76011.97
2019-05-06T07:33:24.833Z,76016.84
2019-05-06T07:35:54.295Z,76017.86
2019-05-06T07:38:23.977Z,76007.55
2019-05-06T07:40:55.024Z,75998.78
2019-05-06T07:43:33.923Z,76009.26
2019-05-06T07:46:07.698Z,76005.52
2019-05-06T07:48:37.382Z,76019.83
2019-05-06T07:51:06.856Z,76036.89
2019-05-06T07:53:36.335Z,76036.41
2019-05-06T07:56:05.826Z,76055.83
2019-05-06T07:58:35.592Z,76056.15
2019-05-06T08:01:05.112Z,76049.28
2019-05-06T08:03:34.590Z,76065.79
2019-05-06T08:06:04.027Z,76077.58
2019-05-06T08:08:33.930Z,76099.48
2019-05-06T08:11:03.495Z,76114.39
2019-05-06T08:13:32.903Z,76132.23
2019-05-06T08:16:02.427Z,76155.89
2019-05-06T08:18:33.036Z,76156.38
2019-05-06T08:21:04.278Z,76166.48
2019-05-06T08:23:37.967Z,76166.32
2019-05-06T08:26:12.819Z,76163.34
2019-05-06T08:28:41.417Z,76153.53
2019-05-06T08:31:09.813Z,76169.67
2019-05-06T08:33:39.346Z,76186.95
2019-05-06T08:36:12.432Z,76214.88
2019-05-06T08:39:02.520Z,76233.38
2019-05-06T08:41:33.223Z,76260.03
2019-05-06T08:44:02.926Z,76284.11
2019-05-06T08:46:32.879Z,76309.08
2019-05-06T08:49:03.280Z,76285.72
2019-05-06T08:51:53.083Z,76269.49
2019-05-06T08:54:27.449Z,76253.08
2019-05-06T08:56:56.941Z,76264.20
2019-05-06T08:59:26.528Z,76300.97
2019-05-06T09:02:00.281Z,76307.00
2019-05-06T09:04:31.962Z,76329.36
2019-05-06T09:07:02.982Z,76349.18
2019-05-06T09:09:32.681Z,76342.36
2019-05-06T09:12:02.811Z,76329.31
2019-05-06T09:14:32.855Z,76286.36
2019-05-06T09:17:03.010Z,76267.88
2019-05-06T09:19:33.311Z,76266.88
2019-05-06T09:22:02.996Z,76264.27
2019-05-06T09:24:32.503Z,76259.22
2019-05-06T09:27:03.547Z,76268.68
2019-05-06T09:29:43.702Z,76270.69
2019-05-06T09:32:15.072Z,76301.52
2019-05-06T09:34:52.938Z,76290.34
2019-05-06T09:37:23.908Z,76282.55
2019-05-06T09:39:53.816Z,76275.34
2019-05-06T09:42:23.515Z,76263.52
2019-05-06T09:44:54.228Z,76265.94
2019-05-06T09:47:28.280Z,76239.72
2019-05-06T09:49:57.717Z,76231.73
2019-05-06T09:52:27.205Z,76246.47
2019-05-06T09:55:03.169Z,76258.93
2019-05-06T09:57:34.149Z,76265.62
2019-05-06T10:00:05.000Z,76251.75
2019-05-06T10:02:34.574Z,76242.58
2019-05-06T10:05:05.280Z,76271.27
2019-05-06T10:07:34.846Z,76286.16
2019-05-06T10:10:05.428Z,76287.61
2019-05-06T10:12:35.018Z,76297.96
2019-05-06T10:15:05.087Z,76309.16
2019-05-06T10:17:34.577Z,76290.11
2019-05-06T10:20:07.724Z,76282.38
2019-05-06T10:22:37.542Z,76256.61
2019-05-06T10:25:07.047Z,76252.72
2019-05-06T10:27:38.800Z,76242.94
2019-05-06T10:30:13.535Z,76219.11
2019-05-06T10:32:47.313Z,76229.76
2019-05-06T10:35:16.784Z,76236.12
2019-05-06T10:38:08.752Z,76218.95
2019-05-06T10:41:00.784Z,76202.50
2019-05-06T10:43:43.171Z,76213.68
2019-05-06T10:46:13.247Z,76226.75
2019-05-06T10:48:42.747Z,76235.51
2019-05-06T10:51:25.796Z,76216.75
2019-05-06T10:53:55.224Z,76223.01
2019-05-06T10:56:29.048Z,76226.59
2019-05-06T10:59:02.296Z,76222.79
2019-05-06T11:01:35.812Z,76234.54
2019-05-06T11:04:05.318Z,76244.17
2019-05-06T11:06:34.821Z,76252.14
2019-05-06T11:09:06.023Z,76257.86
2019-05-06T11:11:38.658Z,76275.50
2019-05-06T11:14:07.039Z,76268.55
2019-05-06T11:16:36.629Z,76240.13
2019-05-06T11:19:06.093Z,76256.80
2019-05-06T11:21:35.601Z,76269.03
2019-05-06T11:24:06.303Z,76257.93
2019-05-06T11:26:35.978Z,76245.05
2019-05-06T11:29:12.346Z,76249.02
2019-05-06T11:31:59.157Z,76271.88
2019-05-06T11:34:32.471Z,76280.52
2019-05-06T11:37:05.736Z,76306.91
2019-05-06T11:39:35.230Z,76307.13
2019-05-06T11:42:23.863Z,76294.81
2019-05-06T11:44:35.910Z,76278.12
2019-05-06T11:47:05.401Z,76293.79
2019-05-06T11:49:34.868Z,76300.38
2019-05-06T11:52:04.541Z,76310.36
2019-05-06T11:54:34.047Z,76332.63
2019-05-06T11:57:05.110Z,76341.45
2019-05-06T11:59:34.576Z,76353.09
2019-05-06T12:02:08.583Z,76368.95
2019-05-06T12:04:38.087Z,76380.17
2019-05-06T12:07:11.373Z,76366.50
2019-05-06T12:09:38.790Z,76322.81
2019-05-06T12:12:08.259Z,76307.07
2019-05-06T12:14:37.748Z,76327.61
2019-05-06T12:17:07.529Z,76343.94
2019-05-06T12:19:37.032Z,76382.76
2019-05-06T12:22:06.672Z,76403.77
2019-05-06T12:24:36.168Z,76400.80
2019-05-06T12:27:08.138Z,76407.78
2019-05-06T12:29:46.189Z,76437.73
2019-05-06T12:32:27.709Z,76423.82
2019-05-06T12:35:05.842Z,76430.71
2019-05-06T12:37:44.768Z,76411.70
2019-05-06T12:40:22.836Z,76429.09
2019-05-06T12:42:57.895Z,76465.61
2019-05-06T12:45:32.994Z,76477.05
2019-05-06T12:48:04.307Z,76394.17
2019-05-06T12:50:33.858Z,76367.46
2019-05-06T12:53:03.402Z,76383.05
2019-05-06T12:55:33.648Z,76375.45
2019-05-06T12:58:03.370Z,76361.27
2019-05-06T13:00:34.533Z,76344.45
2019-05-06T13:03:04.212Z,76314.02
2019-05-06T13:05:33.633Z,76281.92
2019-05-06T13:08:05.109Z,76266.91
2019-05-06T13:10:34.283Z,76258.25
2019-05-06T13:13:04.476Z,76254.69
2019-05-06T13:15:33.953Z,76254.25
2019-05-06T13:18:07.119Z,76246.74
2019-05-06T13:20:36.245Z,76237.45
2019-05-06T13:23:09.935Z,76237.06
2019-05-06T13:25:42.169Z,76214.94
2019-05-06T13:28:14.242Z,76196.08
2019-05-06T13:30:43.733Z,76179.32
2019-05-06T13:33:24.426Z,76161.85
2019-05-06T13:35:54.030Z,76153.79
2019-05-06T13:38:23.495Z,76140.97
2019-05-06T13:40:56.612Z,76131.06
2019-05-06T13:43:25.770Z,76131.65
2019-05-06T13:46:09.050Z,76140.66
2019-05-06T13:48:43.060Z,76123.88
2019-05-06T13:51:14.103Z,76128.29
2019-05-06T13:53:46.154Z,76144.82
2019-05-06T13:56:14.814Z,76128.23
2019-05-06T13:58:44.369Z,76125.70
2019-05-06T14:01:15.452Z,76134.59
2019-05-06T14:03:44.915Z,76158.63
2019-05-06T14:06:14.389Z,76176.16
2019-05-06T14:08:43.899Z,76207.80
2019-05-06T14:11:13.324Z,76234.93
2019-05-06T14:13:42.741Z,76269.85
2019-05-06T14:16:13.065Z,76314.40
2019-05-06T14:18:42.934Z,76328.45
2019-05-06T14:21:12.595Z,76347.95
2019-05-06T14:23:42.273Z,76385.56
2019-05-06T14:26:15.699Z,76398.38
2019-05-06T14:28:58.564Z,76379.69
2019-05-06T14:31:38.394Z,76350.38
2019-05-06T14:34:07.883Z,76337.72
2019-05-06T14:36:37.356Z,76325.75
2019-05-06T14:39:08.796Z,76309.64
2019-05-06T14:41:47.618Z,76309.84
2019-05-06T14:44:17.084Z,76311.20
2019-05-06T14:47:06.409Z,76315.46
2019-05-06T14:49:35.888Z,76301.83
2019-05-06T14:52:05.362Z,76277.08
2019-05-06T14:54:36.431Z,76270.13
2019-05-06T14:57:07.477Z,76277.76
2019-05-06T14:59:36.942Z,76301.16
2019-05-06T15:02:06.401Z,76311.10
2019-05-06T15:04:35.888Z,76324.58
2019-05-06T15:07:05.588Z,76332.92
2019-05-06T15:09:35.065Z,76325.97
2019-05-06T15:12:04.550Z,76322.13
2019-05-06T15:14:34.055Z,76323.58
2019-05-06T15:17:03.524Z,76339.06
2019-05-06T15:19:32.944Z,76349.59
2019-05-06T15:22:02.477Z,76354.11
2019-05-06T15:24:31.941Z,76348.27
2019-05-06T15:27:02.713Z,76354.44
2019-05-06T15:29:32.312Z,76343.25
2019-05-06T15:32:13.018Z,76338.73
2019-05-06T15:34:55.359Z,76330.23
2019-05-06T15:37:28.702Z,76313.39
2019-05-06T15:39:58.192Z,76287.29
2019-05-06T15:42:27.668Z,76274.50
2019-05-06T15:44:57.143Z,76262.09
2019-05-06T15:47:26.583Z,76265.16
2019-05-06T15:49:56.087Z,76256.25
2019-05-06T15:52:25.541Z,76257.44
2019-05-06T15:54:55.041Z,76263.72
2019-05-06T15:57:24.543Z,76270.30
2019-05-06T15:59:53.997Z,76271.27
2019-05-06T16:02:23.599Z,76266.25
2019-05-06T16:04:53.245Z,76253.73
2019-05-06T16:07:25.567Z,76253.18
2019-05-06T16:09:55.456Z,76247.47
2019-05-06T16:12:25.099Z,76255.38
2019-05-06T16:14:54.532Z,76251.95
2019-05-06T16:17:24.079Z,76247.63
2019-05-06T16:19:53.520Z,76266.16
2019-05-06T16:22:23.050Z,76277.44
2019-05-06T16:24:54.155Z,76288.11
2019-05-06T16:27:23.755Z,76274.73
2019-05-06T16:29:53.276Z,76257.80
2019-05-06T16:32:22.817Z,76240.52
2019-05-06T16:34:52.608Z,76242.03
2019-05-06T16:37:22.400Z,76229.22
2019-05-06T16:39:54.452Z,76242.67
2019-05-06T16:42:23.264Z,76243.36
2019-05-06T16:44:52.920Z,76247.91
2019-05-06T16:47:38.387Z,76226.95
2019-05-06T16:50:17.211Z,76217.09
2019-05-06T16:52:46.686Z,76189.95
2019-05-06T16:55:36.859Z,76183.65
2019-05-06T16:58:09.866Z,76176.00
2019-05-06T17:00:39.756Z,76183.23
2019-05-06T17:03:14.595Z,76196.41
2019-05-06T17:06:02.414Z,76192.88
2019-05-06T17:08:35.951Z,76183.29
2019-05-06T17:11:04.900Z,76167.73
2019-05-06T17:13:37.525Z,76166.05
2019-05-06T17:16:05.897Z,76168.86
2019-05-06T17:18:35.381Z,76172.52
2019-05-06T17:21:05.067Z,76183.97
2019-05-06T17:23:34.575Z,76188.39
2019-05-06T17:26:04.045Z,76189.78
2019-05-06T17:28:44.215Z,76186.98
2019-05-06T17:31:15.250Z,76170.08
2019-05-06T17:33:52.289Z,76164.64
2019-05-06T17:36:23.340Z,76148.08
2019-05-06T17:38:54.307Z,76145.46
2019-05-06T17:41:27.883Z,76137.43
2019-05-06T17:43:55.011Z,76128.06
2019-05-06T17:46:28.776Z,76124.66
2019-05-06T17:48:59.801Z,76115.84
2019-05-06T17:51:37.415Z,76114.61
2019-05-06T17:54:07.257Z,76099.02
2019-05-06T17:56:36.712Z,76096.09
2019-05-06T17:59:06.189Z,76091.31
2019-05-06T18:01:37.411Z,76094.64
2019-05-06T18:04:07.082Z,76101.41
2019-05-06T18:06:36.529Z,76084.38
2019-05-06T18:09:12.709Z,76068.69
2019-05-06T18:11:57.583Z,76057.12
2019-05-06T18:14:13.970Z,76039.57
2019-05-06T18:16:43.465Z,76031.47
2019-05-06T18:19:12.920Z,76021.94
2019-05-06T18:21:42.393Z,76015.31
2019-05-06T18:24:12.921Z,76003.88
2019-05-06T18:26:42.563Z,75991.81
2019-05-06T18:29:12.552Z,75984.33
2019-05-06T18:31:42.893Z,75981.75
2019-05-06T18:34:12.923Z,75973.56
2019-05-06T18:36:43.067Z,75970.70
2019-05-06T18:39:12.803Z,75977.78
2019-05-06T18:41:42.312Z,75962.95
2019-05-06T18:44:12.088Z,75954.48
2019-05-06T18:46:42.125Z,75958.13
2019-05-06T18:49:13.115Z,75959.99
2019-05-06T18:51:42.825Z,75949.55
2019-05-06T18:54:12.594Z,75946.13
2019-05-06T18:56:43.041Z,75932.69
2019-05-06T18:59:12.567Z,75926.98
2019-05-06T19:01:43.423Z,75925.93
2019-05-06T19:04:14.594Z,75916.19
2019-05-06T19:06:44.043Z,75908.65
2019-05-06T19:09:22.794Z,75913.48
2019-05-06T19:11:54.528Z,75924.93
2019-05-06T19:14:23.684Z,75921.73
2019-05-06T19:16:55.218Z,75907.27
2019-05-06T19:19:24.282Z,75898.30
2019-05-06T19:21:53.748Z,75889.58
2019-05-06T19:24:23.251Z,75882.75
2019-05-06T19:26:52.948Z,75875.76
2019-05-06T19:29:23.263Z,75869.80
2019-05-06T19:31:52.945Z,75867.22
2019-05-06T19:34:23.583Z,75875.31
2019-05-06T19:36:53.143Z,75883.75
2019-05-06T19:39:23.236Z,75872.73
2019-05-06T19:41:52.724Z,75861.50
2019-05-06T19:44:22.256Z,75848.08
2019-05-06T19:46:53.262Z,75840.55
2019-05-06T19:49:23.968Z,75829.25
2019-05-06T19:51:53.604Z,75820.59
2019-05-06T19:54:23.122Z,75821.71
2019-05-06T19:56:52.910Z,75820.67
2019-05-06T19:59:22.494Z,75819.59
2019-05-06T20:01:52.546Z,75811.38
2019-05-06T20:04:22.890Z,75803.58
2019-05-06T20:06:55.195Z,75794.47
2019-05-06T20:09:42.711Z,75788.80
2019-05-06T20:12:29.616Z,75773.70
2019-05-06T20:15:16.580Z,75770.48
2019-05-06T20:17:46.048Z,75760.83
2019-05-06T20:20:15.509Z,75749.05
2019-05-06T20:22:45.003Z,75740.16
2019-05-06T20:25:14.467Z,75732.77
2019-05-06T20:27:43.966Z,75732.05
2019-05-06T20:30:13.859Z,75726.52
2019-05-06T20:32:43.324Z,75727.52
2019-05-06T20:35:13.117Z,75721.20
2019-05-06T20:37:42.734Z,75712.80
2019-05-06T20:40:14.509Z,75710.52
2019-05-06T20:42:43.544Z,75702.77
2019-05-06T20:45:13.029Z,75701.03
2019-05-06T20:47:42.960Z,75696.55
2019-05-06T20:50:13.219Z,75691.73
2019-05-06T20:52:43.005Z,75688.39
2019-05-06T20:55:15.575Z,75682.88
2019-05-06T20:57:43.682Z,75679.92
2019-05-06T21:00:13.212Z,75674.20
2019-05-06T21:02:42.781Z,75672.92
2019-05-06T21:05:13.929Z,75670.83
2019-05-06T21:07:43.577Z,75663.96
2019-05-06T21:10:13.052Z,75660.75
2019-05-06T21:12:42.519Z,75660.78
2019-05-06T21:15:13.348Z,75661.27
2019-05-06T21:17:43.064Z,75664.35
2019-05-06T21:20:14.138Z,75668.38
2019-05-06T21:22:43.936Z,75672.40
2019-05-06T21:25:13.456Z,75674.01
2019-05-06T21:27:42.942Z,75678.48
2019-05-06T21:30:13.326Z,75678.09
2019-05-06T21:32:42.835Z,75679.28
2019-05-06T21:35:12.650Z,75685.59
2019-05-06T21:37:42.499Z,75681.56
2019-05-06T21:40:12.423Z,75670.56
2019-05-06T21:42:43.187Z,75659.09
2019-05-06T21:45:12.854Z,75649.02
2019-05-06T21:47:46.129Z,75640.66
2019-05-06T21:50:13.498Z,75630.88
2019-05-06T21:52:43.253Z,75629.95
2019-05-06T21:55:13.359Z,75628.34
2019-05-06T21:57:43.139Z,75625.45
2019-05-06T22:00:16.987Z,75624.45
2019-05-06T22:02:45.171Z,75624.58
2019-05-06T22:05:15.485Z,75627.47
2019-05-06T22:07:44.949Z,75627.47
2019-05-06T22:10:14.422Z,75625.53
2019-05-06T22:12:43.902Z,75622.80
2019-05-06T22:15:13.424Z,75621.69
2019-05-06T22:17:43.076Z,75625.93
2019-05-06T22:20:12.621Z,75638.11
2019-05-06T22:22:43.686Z,75634.22
2019-05-06T22:25:13.148Z,75629.39
2019-05-06T22:27:44.607Z,75627.50
2019-05-06T22:30:13.847Z,75624.28
2019-05-06T22:32:46.051Z,75622.64
2019-05-06T22:35:17.131Z,75620.80
2019-05-06T22:37:46.597Z,75618.04
2019-05-06T22:43:04.604Z,75622.25
2019-05-06T22:45:34.071Z,75618.33
2019-05-06T22:48:04.513Z,75613.44
2019-05-06T22:50:53.595Z,75612.83
2019-05-06T22:53:24.880Z,75611.98
2019-05-06T22:55:55.817Z,75608.66
2019-05-06T22:58:25.319Z,75607.24
2019-05-06T23:00:56.093Z,75604.86
2019-05-06T23:03:31.714Z,75601.54
2019-05-06T23:06:02.528Z,75602.13
2019-05-06T23:08:32.552Z,75599.17
2019-05-06T23:11:02.219Z,75592.35
2019-05-06T23:13:52.969Z,75585.21
2019-05-06T23:16:22.322Z,75580.29
2019-05-06T23:18:52.440Z,75571.58
2019-05-06T23:21:23.229Z,75567.95
2019-05-06T23:23:54.757Z,75564.29
2019-05-06T23:26:24.555Z,75568.63
2019-05-06T23:28:54.040Z,75575.25
2019-05-06T23:31:24.513Z,75577.40
2019-05-06T23:33:54.194Z,75581.13
2019-05-06T23:36:23.695Z,75590.13
2019-05-06T23:39:58.842Z,75601.41
2019-05-06T23:43:23.227Z,75614.63
2019-05-06T23:46:47.613Z,75614.63
2019-05-06T23:50:12.474Z,75612.80
2019-05-06T23:53:36.831Z,75617.69
2019-05-06T23:56:44.007Z,75617.65
2019-05-06T23:59:18.591Z,75622.58
